Time;durP1;ratioP1;P1;durP2;ratioP2;P2;SDS_P1;SDS_P2;PMS_P1;PMS_P2;Temp;Humidity;BMP_temperature;BMP_pressure;BME280_temperature;BME280_humidity;BME280_pressure;Samples;Min_cycle;Max_cycle;Signal;HPM_P1;HPM_P2
2022/02/08 00:00:25;;;;;;;11.85;10.75;;;;;;;0.65;100.00;94148.78;5008925;28;20408;-77
2022/02/08 00:02:54;;;;;;;12.45;11.00;;;;;;;0.78;100.00;94139.16;5006787;28;20030;-75
2022/02/08 00:05:21;;;;;;;12.00;10.95;;;;;;;0.61;100.00;94131.38;5007012;28;20061;-76
2022/02/08 00:07:50;;;;;;;11.20;10.10;;;;;;;0.63;100.00;94134.59;5006542;28;20554;-75
2022/02/08 00:10:16;;;;;;;11.50;10.23;;;;;;;0.71;100.00;94129.63;5006694;28;20124;-75
2022/02/08 00:12:42;;;;;;;10.70;9.57;;;;;;;0.68;100.00;94125.59;5007294;28;20037;-76
2022/02/08 00:15:08;;;;;;;11.10;10.13;;;;;;;0.65;100.00;94122.50;4990620;28;20420;-77
2022/02/08 00:17:34;;;;;;;10.82;9.82;;;;;;;0.62;100.00;94118.50;5007935;28;20029;-77
2022/02/08 00:20:00;;;;;;;10.55;9.57;;;;;;;0.61;100.00;94109.22;4993122;28;20047;-76
2022/02/08 00:22:26;;;;;;;11.02;10.02;;;;;;;0.68;100.00;94106.97;5008899;28;20111;-77
2022/02/08 00:24:52;;;;;;;14.10;10.75;;;;;;;0.67;100.00;94113.84;5009647;28;20061;-77
2022/02/08 00:27:17;;;;;;;13.00;10.23;;;;;;;0.59;100.00;94108.56;5008041;28;20061;-77
2022/02/08 00:29:43;;;;;;;11.00;9.80;;;;;;;0.64;100.00;94110.75;5009572;28;20022;-76
2022/02/08 00:32:09;;;;;;;10.82;9.80;;;;;;;0.61;100.00;94106.69;5009554;28;20036;-76
2022/02/08 00:34:35;;;;;;;9.68;8.80;;;;;;;0.55;100.00;94112.31;5007811;28;20030;-77
2022/02/08 00:37:00;;;;;;;10.57;9.60;;;;;;;0.57;100.00;94123.19;5006923;28;20029;-76
2022/02/08 00:39:29;;;;;;;10.40;9.40;;;;;;;0.67;100.00;94111.28;5006878;28;20037;-76
2022/02/08 00:42:02;;;;;;;11.23;8.55;;;;;;;0.55;100.00;94121.72;5007310;28;20531;-76
2022/02/08 00:44:34;;;;;;;11.00;9.52;;;;;;;0.60;100.00;94119.56;5008973;28;20076;-79
2022/02/08 00:49:44;;;;;;;10.35;9.35;;;;;;;0.56;100.00;94119.03;5008884;28;20104;-76
2022/02/08 00:52:15;;;;;;;9.98;8.50;;;;;;;0.48;100.00;94126.53;5006952;28;20109;-78
2022/02/08 00:54:45;;;;;;;10.48;8.32;;;;;;;0.50;100.00;94120.38;5006897;28;20026;-75
2022/02/08 00:57:11;;;;;;;8.57;7.65;;;;;;;0.51;100.00;94114.31;5006081;28;20113;-77
2022/02/08 00:59:36;;;;;;;8.25;7.55;;;;;;;0.66;100.00;94108.84;5007485;28;20575;-76
2022/02/08 01:02:03;;;;;;;8.20;7.57;;;;;;;0.43;100.00;94114.19;5006799;28;20503;-75
2022/02/08 01:04:28;;;;;;;8.50;7.55;;;;;;;0.47;100.00;94109.63;5007372;28;20033;-76
2022/02/08 01:06:55;;;;;;;8.68;7.93;;;;;;;0.55;100.00;94114.84;5006338;28;20404;-76
2022/02/08 01:09:30;;;;;;;9.00;8.10;;;;;;;0.50;100.00;94124.66;5006607;28;20026;-76
2022/02/08 01:11:56;;;;;;;7.63;7.03;;;;;;;0.49;100.00;94108.56;5005781;28;20113;-75
2022/02/08 01:14:23;;;;;;;8.35;7.55;;;;;;;0.46;100.00;94111.38;5007669;28;20089;-78
2022/02/08 01:16:50;;;;;;;7.53;6.80;;;;;;;0.44;100.00;94115.78;5007411;28;20017;-76
2022/02/08 01:19:17;;;;;;;8.50;7.72;;;;;;;0.40;100.00;94106.81;5005729;28;20112;-77
2022/02/08 01:21:42;;;;;;;7.45;6.95;;;;;;;0.37;100.00;94104.53;4989557;28;20068;-76
2022/02/08 01:24:08;;;;;;;7.43;6.82;;;;;;;0.34;100.00;94112.41;5004954;28;20072;-75
2022/02/08 01:26:43;;;;;;;6.65;6.05;;;;;;;0.35;100.00;94101.28;5006032;28;20026;-75
2022/02/08 01:29:21;;;;;;;7.47;6.80;;;;;;;0.40;100.00;94109.34;5005093;28;20029;-75
2022/02/08 01:31:49;;;;;;;7.70;7.07;;;;;;;0.36;100.00;94118.19;4991199;28;20847;-76
2022/02/08 01:34:34;;;;;;;7.13;6.53;;;;;;;0.30;100.00;94123.78;5038158;28;20091;-76
2022/02/08 01:37:08;;;;;;;7.22;6.63;;;;;;;0.36;100.00;94113.09;5006196;28;20022;-76
2022/02/08 01:39:59;;;;;;;7.25;6.65;;;;;;;0.37;100.00;94113.91;4990861;28;20068;-75
2022/02/08 01:42:30;;;;;;;7.03;6.43;;;;;;;0.33;100.00;94120.97;5004451;28;20104;-75
2022/02/08 01:45:22;;;;;;;10.10;6.10;;;;;;;0.22;100.00;94121.09;5006233;28;20057;-76
2022/02/08 01:48:00;;;;;;;6.93;6.32;;;;;;;0.25;100.00;94128.47;5006509;28;20392;-75
2022/02/08 01:50:26;;;;;;;7.43;6.55;;;;;;;0.25;100.00;94130.22;5005267;28;20026;-75
2022/02/08 01:52:52;;;;;;;6.43;5.93;;;;;;;0.25;100.00;94122.56;5006530;28;20515;-76
2022/02/08 01:55:17;;;;;;;7.10;6.50;;;;;;;0.21;100.00;94133.94;5004599;28;20064;-75
2022/02/08 01:57:45;;;;;;;7.40;6.70;;;;;;;0.22;100.00;94127.94;5005252;28;20072;-74
2022/02/08 02:00:12;;;;;;;7.20;6.50;;;;;;;0.19;100.00;94139.19;5004538;28;20029;-75
2022/02/08 02:02:38;;;;;;;8.15;5.93;;;;;;;0.17;100.00;94143.56;5006322;28;20088;-78
2022/02/08 02:05:04;;;;;;;7.90;6.10;;;;;;;0.25;100.00;94140.41;5005722;28;20521;-75
2022/02/08 02:07:29;;;;;;;7.68;6.07;;;;;;;0.20;100.00;94135.69;5005220;28;20091;-75
2022/02/08 02:09:55;;;;;;;7.28;6.50;;;;;;;0.22;100.00;94143.19;5005446;28;20511;-78
2022/02/08 02:12:21;;;;;;;7.15;6.45;;;;;;;0.15;100.00;94144.66;5004293;28;20037;-75
2022/02/08 02:14:47;;;;;;;6.95;6.22;;;;;;;0.18;100.00;94137.56;5005936;28;20541;-76
2022/02/08 02:17:12;;;;;;;7.05;6.43;;;;;;;0.14;100.00;94133.66;5004882;28;20037;-75
2022/02/08 02:19:39;;;;;;;7.80;6.25;;;;;;;0.14;100.00;94143.03;4989258;28;20034;-75
2022/02/08 02:22:06;;;;;;;7.07;6.57;;;;;;;0.15;100.00;94155.63;4989980;28;20037;-76
2022/02/08 02:24:33;;;;;;;7.38;6.78;;;;;;;0.13;100.00;94144.75;5005273;28;20022;-76
2022/02/08 02:26:59;;;;;;;7.80;7.10;;;;;;;0.15;100.00;94144.66;5005909;28;20492;-76
2022/02/08 02:29:25;;;;;;;7.35;6.65;;;;;;;0.11;100.00;94145.81;5004107;28;20048;-75
2022/02/08 02:31:51;;;;;;;7.70;7.00;;;;;;;0.07;100.00;94155.44;4989524;28;20488;-76
2022/02/08 02:34:19;;;;;;;8.20;6.93;;;;;;;0.09;100.00;94155.34;5004240;28;20519;-75
2022/02/08 02:36:45;;;;;;;7.38;6.78;;;;;;;0.03;100.00;94159.22;5005332;28;20053;-76
2022/02/08 02:39:11;;;;;;;7.45;6.80;;;;;;;0.06;100.00;94155.59;4989138;28;20403;-75
2022/02/08 02:41:42;;;;;;;7.25;6.70;;;;;;;-0.02;100.00;94167.22;5005043;28;20140;-76
2022/02/08 02:44:10;;;;;;;9.43;6.95;;;;;;;0.07;100.00;94164.81;5006103;28;20487;-77
2022/02/08 02:46:36;;;;;;;8.68;7.32;;;;;;;-0.01;100.00;94173.09;5003221;28;20542;-76
2022/02/08 02:49:03;;;;;;;7.65;7.13;;;;;;;0.06;100.00;94176.75;5007923;28;20029;-77
2022/02/08 02:51:29;;;;;;;8.25;7.65;;;;;;;-0.01;100.00;94185.81;5004892;28;20022;-76
2022/02/08 02:53:54;;;;;;;7.40;6.75;;;;;;;0.04;100.00;94182.88;5008159;28;20037;-79
2022/02/08 02:56:20;;;;;;;8.20;7.50;;;;;;;0.05;100.00;94192.16;5007777;28;20045;-77
2022/02/08 02:58:45;;;;;;;7.80;7.07;;;;;;;0.06;100.00;94186.13;5006572;28;20110;-76
2022/02/08 03:20:04;;;;;;;8.55;7.72;;;;;;;0.01;100.00;94201.75;5005647;28;20036;-75
2022/02/08 03:22:30;;;;;;;9.30;8.15;;;;;;;0.09;100.00;94204.50;5003665;28;20045;-75
2022/02/08 03:24:55;;;;;;;9.50;8.60;;;;;;;0.05;100.00;94205.69;5006498;28;20584;-75
2022/02/08 03:27:21;;;;;;;8.80;8.10;;;;;;;0.08;100.00;94212.25;5007742;28;20026;-78
2022/02/08 03:29:46;;;;;;;8.60;7.90;;;;;;;0.03;100.00;94215.19;5008007;28;20025;-75
2022/02/08 03:32:13;;;;;;;8.77;7.90;;;;;;;0.06;100.00;94209.03;4990602;28;20034;-76
2022/02/08 03:34:39;;;;;;;9.20;8.32;;;;;;;0.03;100.00;94212.63;5007289;28;20030;-77
2022/02/08 03:37:04;;;;;;;8.68;7.82;;;;;;;0.05;100.00;94220.94;5007958;28;20460;-75
2022/02/08 03:39:37;;;;;;;8.82;8.15;;;;;;;0.06;100.00;94209.03;4990657;28;20033;-76
2022/02/08 03:42:08;;;;;;;8.85;8.15;;;;;;;-0.01;100.00;94211.28;5009180;28;20092;-76
2022/02/08 03:44:34;;;;;;;10.57;9.73;;;;;;;0.00;100.00;94215.44;5006759;28;20108;-75
2022/02/08 03:47:06;;;;;;;8.73;8.00;;;;;;;0.07;100.00;94219.06;5009046;28;20024;-75
2022/02/08 03:49:32;;;;;;;9.75;8.95;;;;;;;0.01;100.00;94217.03;4991633;28;20510;-75
2022/02/08 03:52:01;;;;;;;9.18;8.38;;;;;;;-0.08;100.00;94220.34;5006932;28;20022;-76
2022/02/08 03:54:26;;;;;;;8.98;8.18;;;;;;;0.03;100.00;94224.56;4991430;28;20030;-75
2022/02/08 03:56:52;;;;;;;12.23;8.30;;;;;;;-0.04;100.00;94221.69;5006803;28;20470;-75
2022/02/08 03:59:18;;;;;;;10.50;8.98;;;;;;;0.00;100.00;94221.31;5008611;28;20491;-76
2022/02/08 04:04:34;;;;;;;9.75;7.88;;;;;;;-0.04;100.00;94216.63;5008252;28;20030;-76
2022/02/08 04:07:05;;;;;;;10.77;9.82;;;;;;;0.01;100.00;94224.66;5006407;28;20506;-74
2022/02/08 04:09:30;;;;;;;7.10;6.50;;;;;;;0.05;100.00;94238.75;5007386;28;20018;-75
2022/02/08 04:12:04;;;;;;;7.82;6.95;;;;;;;0.00;100.00;94231.47;4990432;28;20262;-75
2022/02/08 04:14:38;;;;;;;8.13;7.50;;;;;;;-0.09;100.00;94239.88;5006633;28;20458;-75
2022/02/08 04:17:34;;;;;;;8.95;7.60;;;;;;;-0.02;100.00;94243.53;5007125;28;20488;-75
2022/02/08 04:41:09;;;;;;;5.40;4.28;;;;;;;0.05;100.00;94279.47;5008928;28;20091;-75
2022/02/08 04:44:09;;;;;;;4.45;4.00;;;;;;;0.06;100.00;94283.63;5006605;28;20053;-76
2022/02/08 04:48:55;;;;;;;5.32;4.82;;;;;;;0.11;100.00;94280.69;5005916;28;20026;-76
2022/02/08 04:51:36;;;;;;;5.60;5.10;;;;;;;0.02;100.00;94282.25;5007548;28;20026;-76
2022/02/08 05:46:52;;;;;;;2.95;2.63;;;;;;;0.02;100.00;94386.59;5003643;28;20026;-76
2022/02/08 05:49:25;;;;;;;3.28;2.72;;;;;;;0.08;100.00;94403.91;4988298;28;20120;-76
2022/02/08 05:54:18;;;;;;;3.22;2.15;;;;;;;0.12;100.00;94405.28;5004012;28;20546;-76
2022/02/08 05:56:48;;;;;;;3.42;1.67;;;;;;;0.05;100.00;94406.69;4992867;28;20057;-76
2022/02/08 05:59:13;;;;;;;;;;;;;;;0.14;100.00;94425.50;5006536;28;20021;-76
2022/02/08 06:01:39;;;;;;;2.28;1.60;;;;;;;0.09;100.00;94448.00;5006617;28;19924;-76
2022/02/08 06:04:04;;;;;;;3.90;1.92;;;;;;;0.09;100.00;94445.44;4996974;28;20033;-75
2022/02/08 06:06:31;;;;;;;4.15;2.83;;;;;;;-0.01;100.00;94445.34;5016560;28;20052;-76
2022/02/08 06:08:57;;;;;;;3.53;3.22;;;;;;;0.03;100.00;94451.03;5021812;28;20025;-76
2022/02/08 06:11:24;;;;;;;3.70;2.47;;;;;;;0.01;100.00;94456.22;5003489;28;20040;-76
2022/02/08 06:13:52;;;;;;;3.03;1.60;;;;;;;0.07;100.00;94463.38;5005622;28;20491;-76
2022/02/08 06:16:19;;;;;;;2.58;1.90;;;;;;;0.10;100.00;94475.84;5002992;28;20049;-76
2022/02/08 06:18:48;;;;;;;4.00;2.30;;;;;;;0.22;100.00;94476.66;5004283;28;20511;-76
2022/02/08 06:21:14;;;;;;;2.60;2.40;;;;;;;0.20;100.00;94474.19;4986834;28;20258;-76
2022/02/08 06:23:39;;;;;;;3.60;2.47;;;;;;;0.21;100.00;94486.00;5037214;28;20041;-76
2022/02/08 06:26:05;;;;;;;3.15;2.55;;;;;;;0.18;100.00;94483.72;5036349;28;20022;-76
2022/02/08 06:28:30;;;;;;;3.15;2.13;;;;;;;0.17;100.00;94484.63;5003083;28;20562;-76
2022/02/08 06:30:56;;;;;;;2.67;1.90;;;;;;;0.12;100.00;94496.09;5006391;28;20032;-77
2022/02/08 06:33:21;;;;;;;4.40;2.00;;;;;;;0.22;100.00;94499.56;5004491;28;20041;-77
2022/02/08 06:35:48;;;;;;;2.38;1.70;;;;;;;0.18;100.00;94498.97;4987255;28;20105;-77
2022/02/08 06:38:16;;;;;;;1.98;1.65;;;;;;;0.27;100.00;94513.53;5018764;28;20030;-76
2022/02/08 06:40:42;;;;;;;2.35;1.83;;;;;;;0.25;100.00;94515.41;5004094;28;20058;-75
2022/02/08 06:43:08;;;;;;;2.78;1.98;;;;;;;0.20;100.00;94519.22;5002970;28;20054;-75
2022/02/08 06:45:34;;;;;;;3.35;2.75;;;;;;;0.25;100.00;94533.22;5002541;28;20044;-75
2022/02/08 06:48:03;;;;;;;3.40;2.35;;;;;;;0.31;100.00;94537.81;4987140;28;20026;-76
2022/02/08 06:50:29;;;;;;;2.08;1.60;;;;;;;0.21;100.00;94536.91;5001078;28;20121;-76
2022/02/08 06:52:54;;;;;;;1.98;1.42;;;;;;;0.32;100.00;94539.44;5003594;28;20116;-75
2022/02/08 06:55:20;;;;;;;1.70;1.60;;;;;;;0.32;100.00;94544.50;5001632;28;20033;-76
2022/02/08 06:57:58;;;;;;;5.70;2.85;;;;;;;0.26;100.00;94552.63;5005733;28;20033;-75
2022/02/08 07:00:30;;;;;;;6.53;4.55;;;;;;;0.39;100.00;94560.94;5004441;28;20661;-75
2022/02/08 07:02:56;;;;;;;5.80;4.95;;;;;;;0.28;100.00;94568.63;5007121;28;20025;-76
2022/02/08 07:05:21;;;;;;;5.70;5.00;;;;;;;0.24;100.00;94564.69;5010892;28;20505;-75
2022/02/08 07:07:47;;;;;;;5.07;4.60;;;;;;;0.31;100.00;94576.00;4996311;28;20030;-76
2022/02/08 07:10:13;;;;;;;14.45;4.47;;;;;;;0.32;100.00;94587.00;5010692;28;20101;-75
2022/02/08 07:12:40;;;;;;;6.13;3.60;;;;;;;0.41;100.00;94587.13;5003064;28;20601;-75
2022/02/08 07:15:11;;;;;;;4.35;3.97;;;;;;;0.43;100.00;94586.97;4996351;28;20033;-77
2022/02/08 07:17:36;;;;;;;4.22;3.40;;;;;;;0.39;100.00;94588.94;4993120;28;20498;-75
2022/02/08 07:20:03;;;;;;;3.67;3.00;;;;;;;0.50;100.00;94593.22;5010276;28;20041;-76
2022/02/08 07:22:29;;;;;;;6.38;4.60;;;;;;;0.26;100.00;94588.28;5009434;28;20026;-76
2022/02/08 07:24:55;;;;;;;4.82;4.30;;;;;;;0.33;100.00;94597.06;4988789;28;20520;-76
2022/02/08 07:27:21;;;;;;;5.00;4.50;;;;;;;0.42;100.00;94586.16;5011826;28;20026;-76
2022/02/08 07:29:51;;;;;;;4.78;4.28;;;;;;;0.50;100.00;94594.03;5008277;28;20041;-75
2022/02/08 07:32:17;;;;;;;4.32;3.92;;;;;;;0.56;100.00;94594.47;5009971;28;20036;-76
2022/02/08 07:34:47;;;;;;;4.13;3.83;;;;;;;0.73;100.00;94591.41;5007298;28;20030;-76
2022/02/08 07:37:33;;;;;;;4.63;4.18;;;;;;;0.61;100.00;94602.59;5019020;28;20537;-75
2022/02/08 07:40:03;;;;;;;5.32;3.83;;;;;;;0.73;100.00;94602.44;5007958;28;20087;-76
2022/02/08 07:42:28;;;;;;;;;;;;;;;0.87;100.00;94607.22;5006861;28;20046;-75
2022/02/08 07:44:54;;;;;;;3.25;2.53;;;;;;;0.76;100.00;94606.47;5007135;28;19990;-76
2022/02/08 07:47:19;;;;;;;2.65;2.33;;;;;;;0.91;100.00;94615.44;5007326;28;20025;-75
2022/02/08 07:49:45;;;;;;;4.43;3.22;;;;;;;0.90;100.00;94613.84;5005915;28;20022;-75
2022/02/08 07:52:10;;;;;;;3.35;2.83;;;;;;;0.81;100.00;94607.72;5007084;28;20034;-75
2022/02/08 07:54:36;;;;;;;2.13;1.92;;;;;;;0.93;100.00;94618.69;4989294;28;20384;-76
2022/02/08 07:57:01;;;;;;;2.72;1.90;;;;;;;0.74;100.00;94624.41;5005777;28;20389;-75
2022/02/08 07:59:27;;;;;;;4.32;2.33;;;;;;;0.87;100.00;94629.34;5006169;28;20074;-76
2022/02/08 08:01:52;;;;;;;4.95;3.78;;;;;;;0.73;100.00;94637.28;4990120;28;20018;-76
2022/02/08 08:04:18;;;;;;;5.05;4.55;;;;;;;0.74;100.00;94646.56;5007191;28;20499;-75
2022/02/08 08:06:43;;;;;;;5.10;4.60;;;;;;;0.70;100.00;94655.34;4989436;28;20022;-75
2022/02/08 08:09:08;;;;;;;7.72;6.25;;;;;;;0.74;100.00;94666.94;5004412;28;20041;-76
2022/02/08 08:11:39;;;;;;;9.18;5.75;;;;;;;0.84;100.00;94678.00;5008398;28;20037;-75
2022/02/08 08:14:07;;;;;;;8.38;5.63;;;;;;;0.78;100.00;94671.66;5026439;28;20112;-75
2022/02/08 08:21:34;;;;;;;5.78;4.15;;;;;;;1.02;100.00;94684.25;5026355;28;20121;-76
2022/02/08 08:24:04;;;;;;;4.18;3.20;;;;;;;0.98;100.00;94685.41;5026594;28;20033;-76
2022/02/08 08:26:30;;;;;;;2.75;2.35;;;;;;;0.97;100.00;94691.41;5001733;28;20029;-77
2022/02/08 08:28:56;;;;;;;5.40;2.30;;;;;;;0.91;100.00;94697.00;5006218;28;20422;-76
2022/02/08 08:31:21;;;;;;;3.50;1.88;;;;;;;1.09;100.00;94690.47;5004107;28;20081;-76
2022/02/08 08:33:47;;;;;;;3.80;2.53;;;;;;;1.06;100.00;94693.25;4989967;28;20032;-76
2022/02/08 08:36:13;;;;;;;2.30;2.00;;;;;;;1.16;100.00;94699.25;5015222;28;20017;-76
2022/02/08 08:38:39;;;;;;;3.22;1.75;;;;;;;1.09;100.00;94698.13;4989130;28;20037;-77
2022/02/08 08:51:46;;;;;;;4.25;3.22;;;;;;;1.34;97.72;94715.66;5006897;28;20034;-78
2022/02/08 08:54:12;;;;;;;3.63;3.20;;;;;;;1.46;97.22;94724.06;5009375;28;20484;-77
2022/02/08 08:56:39;;;;;;;5.20;2.58;;;;;;;1.39;97.00;94723.75;5007251;28;20100;-77
2022/02/08 08:59:06;;;;;;;2.75;2.47;;;;;;;1.49;97.75;94727.19;5016658;28;20084;-77
2022/02/08 09:01:32;;;;;;;3.95;2.92;;;;;;;1.44;97.73;94736.16;5018093;28;20483;-77
2022/02/08 09:03:58;;;;;;;5.68;3.03;;;;;;;1.65;97.76;94742.09;5006613;28;20049;-77
2022/02/08 09:06:23;;;;;;;5.70;3.13;;;;;;;1.61;97.33;94735.59;5009722;28;20061;-77
2022/02/08 09:08:49;;;;;;;4.05;2.95;;;;;;;1.69;96.17;94738.38;5007681;28;20030;-77
2022/02/08 09:11:27;;;;;;;4.35;3.17;;;;;;;1.74;95.87;94743.09;4993612;28;20522;-78
2022/02/08 09:30:17;;;;;;;3.17;2.63;;;;;;;1.83;92.55;94757.69;5015358;28;20072;-77
2022/02/08 09:32:53;;;;;;;5.95;2.72;;;;;;;1.91;93.01;94757.88;5028562;28;20037;-79
2022/02/08 09:35:19;;;;;;;3.60;2.85;;;;;;;1.92;93.49;94759.50;5012811;28;20033;-79
2022/02/08 09:37:45;;;;;;;5.22;2.90;;;;;;;1.96;93.47;94755.75;5011383;28;20411;-77
2022/02/08 09:40:14;;;;;;;2.70;2.15;;;;;;;2.03;93.79;94757.69;5006434;28;20120;-77
2022/02/08 09:42:41;;;;;;;6.28;3.58;;;;;;;2.11;92.94;94764.75;5012690;28;20052;-77
2022/02/08 09:45:12;;;;;;;6.35;4.00;;;;;;;2.10;91.27;94758.00;5003753;28;20120;-77
2022/02/08 09:47:40;;;;;;;4.55;3.40;;;;;;;2.15;92.40;94763.56;4987724;28;20080;-77
2022/02/08 09:50:14;;;;;;;7.65;3.70;;;;;;;2.10;92.45;94763.09;5003136;28;20124;-77
2022/02/08 09:52:46;;;;;;;4.78;2.30;;;;;;;2.09;92.21;94757.19;5003454;28;20068;-76
2022/02/08 09:55:11;;;;;;;1.77;1.40;;;;;;;2.10;92.17;94753.72;5002810;28;20033;-76
2022/02/08 09:57:38;;;;;;;1.30;1.20;;;;;;;2.11;91.35;94752.78;4985940;28;20044;-78
2022/02/08 10:00:04;;;;;;;2.80;1.88;;;;;;;2.23;91.08;94761.19;4988948;28;20479;-76
2022/02/08 10:02:30;;;;;;;2.75;1.60;;;;;;;2.29;91.60;94762.41;5018826;28;20113;-77
2022/02/08 10:05:04;;;;;;;5.10;2.63;;;;;;;2.31;91.79;94763.91;5003670;28;20117;-76
2022/02/08 10:07:33;;;;;;;5.78;2.22;;;;;;;2.46;91.16;94764.41;5002169;28;20064;-76
2022/02/08 10:09:59;;;;;;;3.80;1.90;;;;;;;2.49;91.91;94769.25;5002463;28;20029;-76
2022/02/08 10:12:31;;;;;;;4.03;2.03;;;;;;;2.35;91.23;94767.84;4999055;28;20367;-76
2022/02/08 10:22:49;;;;;;;3.35;2.20;;;;;;;2.49;88.95;94764.16;5004539;28;20034;-77
2022/02/08 10:25:30;;;;;;;2.10;1.58;;;;;;;2.46;89.27;94764.41;4985245;28;20129;-76
2022/02/08 10:28:53;;;;;;;1.90;1.45;;;;;;;2.57;89.52;94760.00;5000502;28;20112;-76
2022/02/08 10:38:58;;;;;;;3.00;1.38;;;;;;;2.95;87.78;94771.34;5003188;28;20450;-77
2022/02/08 10:41:23;;;;;;;2.10;1.30;;;;;;;2.89;88.02;94759.09;4985230;28;20053;-77
2022/02/08 10:44:01;;;;;;;5.57;1.63;;;;;;;2.83;88.48;94764.69;4982176;28;20073;-76
2022/02/08 10:46:27;;;;;;;3.60;2.35;;;;;;;2.87;89.48;94758.38;4999210;28;20029;-77
2022/02/08 10:49:02;;;;;;;3.47;2.78;;;;;;;2.86;88.39;94754.22;5483764;23;20732;-78
2022/02/08 10:51:28;;;;;;;3.72;2.80;;;;;;;2.81;88.27;94753.78;5000204;28;20037;-77
2022/02/08 10:54:00;;;;;;;2.45;2.00;;;;;;;2.69;87.78;94754.84;5005502;28;20187;-77
2022/02/08 10:56:29;;;;;;;3.30;2.10;;;;;;;2.51;88.56;94750.31;5021254;28;20029;-77
2022/02/08 10:59:11;;;;;;;2.85;1.90;;;;;;;2.57;90.16;94765.13;5022403;28;20486;-77
2022/02/08 11:01:45;;;;;;;2.53;1.60;;;;;;;2.36;90.59;94763.53;5006665;28;20824;-77
2022/02/08 11:04:18;;;;;;;2.25;1.48;;;;;;;2.40;91.40;94752.94;5023141;28;20037;-77
2022/02/08 11:06:51;;;;;;;2.33;1.40;;;;;;;2.50;90.03;94761.47;5023042;28;20537;-77
2022/02/08 11:15:19;;;;;;;4.53;1.25;;;;;;;2.37;91.86;94763.44;5021492;28;20112;-77
2022/02/08 11:18:11;;;;;;;2.78;1.73;;;;;;;2.57;91.57;94772.78;5008943;28;20063;-78
2022/02/08 11:20:41;;;;;;;1.88;1.38;;;;;;;2.38;89.42;94756.53;5022646;28;20478;-77
2022/02/08 11:23:22;;;;;;;1.75;1.02;;;;;;;2.61;89.52;94768.25;5020826;28;20053;-77
2022/02/08 11:25:50;;;;;;;1.83;1.38;;;;;;;2.65;88.58;94760.19;5002517;28;20556;-77
2022/02/08 11:31:09;;;;;;;1.30;1.10;;;;;;;2.60;91.91;94766.63;5007947;28;20449;-77
2022/02/08 11:50:04;;;;;;;2.83;1.27;;;;;;;2.63;87.31;94771.50;5010330;28;20037;-77
2022/02/08 11:55:20;;;;;;;3.55;1.58;;;;;;;2.79;89.32;94765.91;5006716;28;20113;-78
2022/02/08 12:00:38;;;;;;;1.50;1.20;;;;;;;3.01;89.57;94770.84;5006497;28;20041;-78
2022/02/08 12:06:10;;;;;;;3.83;1.27;;;;;;;3.07;87.65;94762.63;4993309;28;20514;-77
2022/02/08 12:08:43;;;;;;;3.95;1.40;;;;;;;3.03;87.78;94774.06;4990223;28;20022;-77
2022/02/08 12:11:37;;;;;;;1.77;1.35;;;;;;;2.97;88.58;94777.13;5006697;28;20038;-77
2022/02/08 12:57:53;;;;;;;2.70;1.40;;;;;;;2.70;87.21;94808.38;5006908;28;20037;-77
2022/02/08 13:32:23;;;;;;;5.07;2.95;;;;;;;2.41;89.28;94818.44;5001340;28;20045;-76
2022/02/08 14:06:23;;;;;;;5.78;2.92;;;;;;;2.52;87.48;94877.16;5001309;28;20604;-77
2022/02/08 14:09:05;;;;;;;2.90;2.20;;;;;;;2.62;85.14;94877.22;4988939;28;20482;-76
2022/02/08 14:19:46;;;;;;;3.92;2.17;;;;;;;2.72;85.99;94895.16;4999439;28;20034;-76
2022/02/08 14:25:19;;;;;;;5.10;1.77;;;;;;;2.61;83.97;94911.34;4992584;28;20374;-76
2022/02/08 14:30:40;;;;;;;3.83;1.17;;;;;;;2.61;84.98;94917.28;4994223;28;20122;-77
2022/02/08 15:08:53;;;;;;;2.70;0.98;;;;;;;2.32;86.37;94961.41;4993477;28;20034;-78
2022/02/08 15:10:51;;;;;;;4.13;1.10;;;;;;;2.27;87.29;94968.63;4994530;28;20046;-77
2022/02/08 15:13:19;;;;;;;2.65;1.40;;;;;;;2.21;86.81;94954.63;4967349;28;20034;-77
2022/02/08 15:18:13;;;;;;;4.10;1.30;;;;;;;2.21;86.85;94964.03;4986428;28;20117;-77
2022/02/08 15:20:39;;;;;;;2.50;1.30;;;;;;;2.11;86.52;94954.53;4992469;28;20044;-78
2022/02/08 15:23:08;;;;;;;2.33;1.27;;;;;;;2.12;86.52;94978.28;4991610;28;20720;-77
2022/02/08 15:25:34;;;;;;;3.97;1.45;;;;;;;2.11;86.37;94980.06;5006539;28;20022;-77
2022/02/08 15:28:04;;;;;;;3.53;1.55;;;;;;;2.02;87.24;94979.97;4991385;28;20029;-77
2022/02/08 15:30:31;;;;;;;7.32;2.58;;;;;;;2.08;86.91;94993.06;5005316;28;20377;-77
2022/02/08 15:32:57;;;;;;;2.78;2.00;;;;;;;2.06;82.82;94982.16;4995487;28;20053;-77
2022/02/08 15:35:22;;;;;;;3.53;1.42;;;;;;;2.08;83.03;95010.13;4987995;28;20072;-76
2022/02/08 15:37:50;;;;;;;1.95;1.30;;;;;;;2.02;83.38;95015.72;4988384;28;20502;-77
2022/02/08 15:40:16;;;;;;;3.53;1.25;;;;;;;1.98;83.83;95025.34;5007898;28;20023;-76
2022/02/08 15:42:41;;;;;;;3.85;1.33;;;;;;;1.93;85.02;95034.25;5005743;28;20118;-77
2022/02/08 15:45:25;;;;;;;4.68;1.42;;;;;;;1.93;84.54;95026.59;5007915;28;20483;-76
2022/02/08 15:47:51;;;;;;;3.15;1.50;;;;;;;1.99;83.50;95041.47;4992075;28;20022;-77
2022/02/08 15:50:32;;;;;;;4.65;1.88;;;;;;;1.92;84.76;95053.09;5008786;28;20053;-77
2022/02/08 15:56:06;;;;;;;5.95;2.55;;;;;;;1.96;82.29;95062.94;4993373;28;20068;-77
2022/02/08 16:01:15;;;;;;;15.18;4.82;;;;;;;1.75;86.17;95063.75;5028266;28;20038;-77
2022/02/08 16:06:49;;;;;;;8.60;4.03;;;;;;;1.71;88.20;95072.53;5017762;28;20111;-76
2022/02/08 16:17:15;;;;;;;6.90;3.78;;;;;;;1.71;86.47;95098.88;5001958;28;20923;-77
2022/02/08 16:31:35;;;;;;;8.18;2.03;;;;;;;1.82;81.92;95110.84;5000492;28;20038;-77
2022/02/08 16:57:56;;;;;;;10.95;3.88;;;;;;;1.52;85.41;95145.34;5005697;28;20396;-77
2022/02/08 17:00:29;;;;;;;6.67;3.73;;;;;;;1.63;82.98;95156.53;5005556;28;20010;-77
2022/02/08 17:03:00;;;;;;;5.05;2.72;;;;;;;1.65;83.78;95159.78;4991004;28;20038;-77
2022/02/08 17:05:25;;;;;;;;;;;;;;;1.63;84.48;95161.63;5004817;28;20034;-77
2022/02/08 17:07:51;;;;;;;9.18;4.55;;;;;;;1.56;84.71;95167.19;5007366;28;19919;-77
2022/02/08 17:10:35;;;;;;;9.15;3.85;;;;;;;1.55;84.83;95172.38;5005801;28;20032;-77
2022/02/08 17:47:43;;;;;;;1.77;1.00;;;;;;;0.95;87.24;95210.69;5024843;28;20033;-77
2022/02/08 17:50:17;;;;;;;2.53;1.10;;;;;;;0.96;86.52;95220.78;5021855;28;20073;-77
2022/02/08 17:52:44;;;;;;;3.40;1.80;;;;;;;0.94;86.40;95214.97;5002377;28;20568;-77
2022/02/08 17:55:11;;;;;;;3.45;0.93;;;;;;;0.86;86.55;95221.53;5003821;28;20034;-76
2022/02/08 17:57:36;;;;;;;3.80;1.38;;;;;;;0.83;87.91;95239.59;5004432;28;20026;-77
2022/02/08 18:00:07;;;;;;;3.97;1.38;;;;;;;0.66;88.26;95230.53;5005182;28;20041;-76
2022/02/08 18:02:32;;;;;;;2.90;1.52;;;;;;;0.70;88.17;95243.91;5005300;28;20073;-76
2022/02/08 18:05:00;;;;;;;7.18;1.63;;;;;;;0.67;88.29;95249.19;5000867;28;20847;-76
2022/02/08 18:07:25;;;;;;;4.55;2.22;;;;;;;0.54;88.85;95244.13;5001417;28;20029;-76
2022/02/08 18:09:52;;;;;;;6.43;3.00;;;;;;;0.62;88.86;95251.22;4998271;28;20041;-77
2022/02/08 18:12:19;;;;;;;5.80;3.15;;;;;;;0.62;88.19;95261.41;5020426;28;20691;-77
2022/02/08 18:14:51;;;;;;;6.28;2.38;;;;;;;0.53;88.93;95262.84;5003162;28;20510;-77
2022/02/08 18:17:22;;;;;;;7.00;3.60;;;;;;;0.40;89.35;95265.41;5004496;28;20552;-76
2022/02/08 18:19:55;;;;;;;5.80;3.00;;;;;;;0.27;90.59;95266.31;4982909;28;20026;-76
2022/02/08 18:22:29;;;;;;;4.35;2.90;;;;;;;0.28;91.51;95276.41;4998864;28;20478;-76
2022/02/08 19:07:44;;;;;;;6.88;3.05;;;;;;;0.36;94.22;95316.63;5006911;28;20107;-76
2022/02/08 19:13:37;;;;;;;4.50;2.72;;;;;;;0.14;94.00;95314.66;4994186;28;20042;-76
2022/02/08 19:15:59;;;;;;;8.70;2.90;;;;;;;0.08;94.90;95325.25;4983996;28;20099;-76
2022/02/08 19:21:45;;;;;;;7.43;2.25;;;;;;;-0.06;95.37;95331.22;5005551;28;20030;-75
2022/02/08 19:23:39;;;;;;;6.07;2.88;;;;;;;0.24;95.41;95331.00;4992545;28;20530;-76
2022/02/08 19:26:06;;;;;;;5.40;2.40;;;;;;;0.15;94.75;95338.41;5001628;28;20084;-76
2022/02/08 19:28:32;;;;;;;10.65;4.35;;;;;;;0.11;95.46;95337.78;5001778;28;20483;-76
2022/02/08 19:30:58;;;;;;;7.60;2.60;;;;;;;0.10;95.42;95346.31;4998173;28;20048;-76
2022/02/08 19:33:25;;;;;;;7.85;2.92;;;;;;;0.12;95.57;95357.25;5004195;28;20034;-76
2022/02/08 19:35:51;;;;;;;3.60;2.17;;;;;;;0.13;95.22;95356.31;5002992;28;20060;-77
2022/02/08 19:38:18;;;;;;;6.93;3.20;;;;;;;0.15;95.81;95357.03;5003056;28;20026;-76
2022/02/08 19:40:44;;;;;;;5.60;3.70;;;;;;;0.15;95.83;95358.78;4966992;28;20827;-76
2022/02/08 19:43:09;;;;;;;3.03;2.22;;;;;;;0.28;95.53;95351.97;4968332;28;20124;-76